Time;durP1;ratioP1;P1;durP2;ratioP2;P2;SDS_P1;SDS_P2;PMS_P1;PMS_P2;Temp;Humidity;BMP_temperature;BMP_pressure;BME280_temperature;BME280_humidity;BME280_pressure;Samples;Min_cycle;Max_cycle;Signal;HPM_P1;HPM_P2
2022/10/31 00:00:16;;;;;;;1.80;0.82;;;;;;;18.43;54.83;93837.03;5041907;28;20029;-87
2022/10/31 00:02:41;;;;;;;2.28;0.82;;;;;;;18.43;54.96;93825.34;5009911;28;20503;-86
2022/10/31 00:05:07;;;;;;;1.08;0.63;;;;;;;18.44;54.67;93835.81;5005270;28;20495;-86
2022/10/31 00:07:32;;;;;;;2.30;0.80;;;;;;;18.44;54.80;93835.06;5006696;28;20042;-87
2022/10/31 00:09:57;;;;;;;1.85;0.82;;;;;;;18.44;54.62;93830.31;4990551;28;20033;-86
2022/10/31 00:12:23;;;;;;;4.78;0.60;;;;;;;18.43;55.10;93833.56;5007623;28;20037;-86
2022/10/31 00:14:48;;;;;;;1.13;0.80;;;;;;;18.44;54.54;93835.06;5004955;28;20038;-86
2022/10/31 00:17:14;;;;;;;4.18;1.00;;;;;;;18.44;54.78;93835.06;4987746;28;20307;-86
2022/10/31 00:19:39;;;;;;;5.97;1.00;;;;;;;18.42;54.77;93830.06;4988829;28;20442;-86
2022/10/31 00:22:05;;;;;;;3.30;0.70;;;;;;;18.42;54.83;93832.81;4994940;28;20062;-86
2022/10/31 00:24:30;;;;;;;4.03;0.98;;;;;;;18.43;54.42;93834.31;4996419;28;20046;-86
2022/10/31 00:26:56;;;;;;;3.63;1.20;;;;;;;18.44;54.56;93838.53;4973138;28;20381;-86
2022/10/31 00:29:21;;;;;;;1.95;0.70;;;;;;;18.43;54.79;93830.81;4971411;28;20055;-85
2022/10/31 00:31:46;;;;;;;1.27;0.70;;;;;;;18.43;54.83;93839.03;4964041;28;20093;-85
2022/10/31 00:34:12;;;;;;;2.63;0.88;;;;;;;18.43;54.80;93839.03;4959200;28;20053;-86
2022/10/31 00:36:37;;;;;;;2.20;0.65;;;;;;;18.43;54.82;93842.53;4989352;28;20503;-85
2022/10/31 00:39:03;;;;;;;1.85;0.68;;;;;;;18.44;54.72;93837.78;4963897;28;20392;-85
2022/10/31 00:41:29;;;;;;;1.35;0.70;;;;;;;18.44;54.75;93830.31;4987835;28;20058;-87
2022/10/31 00:43:54;;;;;;;0.98;0.63;;;;;;;18.43;54.63;93837.03;4989673;28;20427;-86
2022/10/31 00:46:20;;;;;;;3.03;0.80;;;;;;;18.43;54.26;93836.28;4989411;28;20085;-86
2022/10/31 00:48:45;;;;;;;1.35;0.60;;;;;;;18.43;54.82;93848.00;4984236;28;20451;-87
2022/10/31 00:51:11;;;;;;;1.58;0.60;;;;;;;18.42;54.65;93840.28;4988858;28;20046;-86
2022/10/31 00:53:36;;;;;;;2.72;0.60;;;;;;;18.43;54.45;93850.72;4989274;28;20053;-85
2022/10/31 00:56:02;;;;;;;3.88;0.80;;;;;;;18.42;54.64;93835.56;4981329;28;20046;-86
2022/10/31 00:58:27;;;;;;;1.15;0.50;;;;;;;18.41;54.90;93850.47;4961860;28;20045;-85
2022/10/31 01:00:55;;;;;;;0.93;0.50;;;;;;;18.42;54.86;93846.50;4992341;28;20038;-87
2022/10/31 01:03:26;;;;;;;3.00;0.80;;;;;;;18.40;54.79;93851.72;4987192;28;20072;-85
2022/10/31 01:06:01;;;;;;;2.20;0.85;;;;;;;18.42;54.66;93853.97;4978139;28;20042;-86
2022/10/31 01:08:26;;;;;;;2.97;0.73;;;;;;;18.42;54.61;93854.72;4969544;28;20042;-86
2022/10/31 01:11:05;;;;;;;1.25;0.57;;;;;;;18.40;54.79;93848.28;4972070;28;20038;-87
2022/10/31 01:13:30;;;;;;;1.63;0.45;;;;;;;18.42;54.46;93851.22;4972973;28;20364;-85
2022/10/31 01:15:56;;;;;;;1.85;0.60;;;;;;;18.41;54.53;93850.47;4962712;28;20415;-85
2022/10/31 01:18:21;;;;;;;2.03;0.60;;;;;;;18.42;54.51;93848.50;4978653;28;20041;-86
2022/10/31 01:20:47;;;;;;;1.27;0.80;;;;;;;18.42;54.64;93851.22;4957386;28;20089;-86
2022/10/31 01:23:12;;;;;;;1.80;0.98;;;;;;;18.41;54.55;93850.47;4953267;28;20034;-86
2022/10/31 01:25:37;;;;;;;2.03;0.75;;;;;;;18.41;54.84;93844.25;4985694;28;20496;-86
2022/10/31 01:28:03;;;;;;;2.03;0.70;;;;;;;18.41;54.55;93844.25;4969413;28;20062;-86
2022/10/31 01:30:28;;;;;;;2.30;1.17;;;;;;;18.40;54.72;93845.53;4975332;28;20043;-86
2022/10/31 01:32:54;;;;;;;1.95;0.80;;;;;;;18.40;54.75;93849.00;4954149;28;20049;-86
2022/10/31 01:35:19;;;;;;;3.00;0.68;;;;;;;18.41;54.83;93850.47;4954643;28;20030;-86
2022/10/31 01:37:44;;;;;;;1.40;0.80;;;;;;;18.41;54.40;93844.25;4990066;28;20447;-85
2022/10/31 01:40:10;;;;;;;1.20;1.08;;;;;;;18.40;54.53;93846.25;4989144;28;20038;-86
2022/10/31 01:42:35;;;;;;;3.28;1.05;;;;;;;18.40;54.58;93838.03;4973931;28;20042;-86
2022/10/31 01:45:01;;;;;;;1.63;0.70;;;;;;;18.40;54.99;93840.78;4954010;28;20492;-86
2022/10/31 01:47:33;;;;;;;2.00;0.60;;;;;;;18.40;54.66;93837.31;4955551;28;20035;-86
2022/10/31 01:50:00;;;;;;;1.20;0.60;;;;;;;18.40;54.56;93838.03;4955148;28;20046;-86
2022/10/31 01:52:44;;;;;;;4.50;0.85;;;;;;;18.39;54.44;93841.31;4990537;28;20114;-86
2022/10/31 01:55:19;;;;;;;2.33;0.85;;;;;;;18.41;54.28;93833.31;4969545;28;20046;-86
2022/10/31 01:57:46;;;;;;;2.30;0.80;;;;;;;18.40;54.58;93837.31;4972548;28;20043;-86
2022/10/31 02:00:12;;;;;;;2.25;0.73;;;;;;;18.40;54.72;93837.31;4991206;28;20037;-86
2022/10/31 02:02:37;;;;;;;2.08;0.68;;;;;;;18.39;54.48;93835.84;4992496;28;20119;-86
2022/10/31 02:05:05;;;;;;;3.25;1.05;;;;;;;18.38;54.38;93834.34;4990858;28;20034;-85
2022/10/31 02:07:38;;;;;;;1.67;0.60;;;;;;;18.39;54.20;93844.03;4957311;28;20035;-86
2022/10/31 02:10:04;;;;;;;1.17;0.60;;;;;;;18.40;54.60;93845.53;4971954;28;20089;-85
2022/10/31 02:12:30;;;;;;;2.65;0.85;;;;;;;18.38;54.24;93837.81;4988965;28;20534;-86
2022/10/31 02:14:55;;;;;;;1.25;0.50;;;;;;;18.39;54.54;93838.56;4989394;28;20129;-87
2022/10/31 02:17:21;;;;;;;1.52;0.60;;;;;;;18.39;54.56;93833.09;4987674;28;20030;-85
2022/10/31 02:20:01;;;;;;;2.22;0.80;;;;;;;18.38;54.71;93832.34;4973364;28;20041;-86
2022/10/31 02:22:29;;;;;;;1.55;0.60;;;;;;;18.39;54.52;93830.34;4973348;28;20038;-86
2022/10/31 02:25:24;;;;;;;0.90;0.65;;;;;;;18.38;54.56;93837.06;4988997;28;20121;-86
2022/10/31 02:28:27;;;;;;;2.90;0.80;;;;;;;18.39;54.76;93833.84;4985399;28;20109;-87
2022/10/31 02:31:10;;;;;;;1.40;0.90;;;;;;;18.38;54.62;93839.81;4989557;28;20047;-85
2022/10/31 02:33:42;;;;;;;2.35;0.60;;;;;;;18.40;54.43;93831.84;4979001;28;20066;-85
2022/10/31 02:36:38;;;;;;;0.82;0.50;;;;;;;18.37;54.73;93839.06;4979089;28;20042;-85
2022/10/31 02:39:11;;;;;;;1.48;0.52;;;;;;;18.37;54.37;93835.59;4992851;28;20598;-86
2022/10/31 02:42:03;;;;;;;2.35;0.70;;;;;;;18.37;54.71;93833.59;5023513;28;20148;-86
2022/10/31 02:44:45;;;;;;;3.20;0.85;;;;;;;18.38;54.50;93831.59;5024249;28;20136;-86
2022/10/31 02:47:17;;;;;;;1.88;0.90;;;;;;;18.37;54.55;93835.59;4990967;28;20500;-86
2022/10/31 02:49:56;;;;;;;3.55;0.75;;;;;;;18.36;54.58;93834.09;4975584;28;20030;-86
2022/10/31 02:52:24;;;;;;;0.50;0.50;;;;;;;18.38;54.41;93834.34;4993632;28;20045;-86
2022/10/31 02:54:50;;;;;;;1.75;0.52;;;;;;;18.37;54.28;93835.59;5004402;28;20033;-86
2022/10/31 02:57:17;;;;;;;1.42;0.65;;;;;;;18.35;54.56;93830.59;4988786;28;20492;-86
2022/10/31 02:59:46;;;;;;;2.00;0.93;;;;;;;18.36;54.45;93834.09;5008315;28;20502;-86
2022/10/31 03:02:48;;;;;;;1.02;0.70;;;;;;;18.37;54.55;93841.06;4987286;28;20049;-86
2022/10/31 03:05:32;;;;;;;1.08;0.57;;;;;;;18.35;54.54;93836.09;4990761;28;20045;-85
2022/10/31 03:08:13;;;;;;;1.42;0.50;;;;;;;18.35;54.49;93838.06;5007212;28;20042;-85
2022/10/31 03:10:56;;;;;;;3.72;0.70;;;;;;;18.35;54.49;93835.34;5021686;28;20045;-86
2022/10/31 03:13:26;;;;;;;1.60;0.70;;;;;;;18.36;54.24;93840.31;5006967;28;23149;-86
2022/10/31 03:15:53;;;;;;;1.27;0.73;;;;;;;18.35;53.98;93843.53;5006962;28;20064;-86
2022/10/31 03:18:25;;;;;;;1.23;0.60;;;;;;;18.34;54.20;93847.53;5004983;28;20037;-85
2022/10/31 03:20:54;;;;;;;1.52;0.57;;;;;;;18.36;54.04;93842.31;4995768;28;20042;-86
2022/10/31 03:23:19;;;;;;;1.25;0.60;;;;;;;18.35;54.54;93829.88;4988288;28;20033;-87
2022/10/31 03:25:45;;;;;;;2.35;0.77;;;;;;;18.35;54.70;93838.06;5026535;28;20068;-86
2022/10/31 03:28:11;;;;;;;0.73;0.60;;;;;;;18.33;54.15;93830.34;5010143;28;20037;-86
2022/10/31 03:30:38;;;;;;;0.88;0.50;;;;;;;18.35;54.50;93840.81;5036789;28;20364;-86
2022/10/31 03:33:04;;;;;;;0.60;0.60;;;;;;;18.36;54.41;93843.03;5026511;28;20040;-85
2022/10/31 03:35:30;;;;;;;1.65;0.70;;;;;;;18.34;54.40;93842.81;5027133;28;20048;-86
2022/10/31 03:37:55;;;;;;;0.98;0.55;;;;;;;18.35;54.22;93847.03;5026422;28;20037;-86
2022/10/31 03:40:21;;;;;;;0.50;0.50;;;;;;;18.36;54.61;93843.03;5023799;28;20041;-85
2022/10/31 03:43:04;;;;;;;1.08;0.63;;;;;;;18.36;54.09;93847.78;5012398;28;20040;-85
2022/10/31 03:45:30;;;;;;;2.72;0.65;;;;;;;18.36;54.54;93848.53;5017614;28;20119;-86
2022/10/31 03:47:55;;;;;;;0.65;0.60;;;;;;;18.34;54.63;93845.53;5010191;28;20041;-85
2022/10/31 03:50:21;;;;;;;0.77;0.52;;;;;;;18.32;54.34;93839.81;4990675;28;20030;-86
2022/10/31 03:52:49;;;;;;;2.40;0.65;;;;;;;18.35;54.52;93833.34;4994059;28;20224;-85
2022/10/31 03:55:21;;;;;;;1.33;0.85;;;;;;;18.34;54.32;93837.31;5017103;28;20052;-86
2022/10/31 03:57:55;;;;;;;1.00;0.60;;;;;;;18.34;54.38;93833.84;5006672;28;20046;-87
2022/10/31 04:00:21;;;;;;;0.50;0.40;;;;;;;18.34;54.46;93836.56;5011932;28;20544;-87
2022/10/31 04:02:57;;;;;;;1.17;0.63;;;;;;;18.35;54.36;93844.28;4990230;28;20034;-86
2022/10/31 04:05:22;;;;;;;1.75;0.85;;;;;;;18.35;54.58;93830.59;5031949;28;20468;-86
2022/10/31 04:07:50;;;;;;;0.63;0.55;;;;;;;18.35;54.32;93847.03;5025714;28;20041;-86
2022/10/31 04:10:16;;;;;;;1.13;0.60;;;;;;;18.34;54.49;93842.06;5006190;28;20475;-87
2022/10/31 04:12:42;;;;;;;1.85;0.60;;;;;;;18.33;54.35;93846.03;5023026;28;20049;-86
2022/10/31 04:15:08;;;;;;;0.77;0.60;;;;;;;18.34;54.53;93839.31;5005930;28;20038;-86
2022/10/31 04:17:36;;;;;;;1.10;0.60;;;;;;;18.34;54.19;93840.06;4991934;28;20042;-85
2022/10/31 04:20:02;;;;;;;0.98;0.50;;;;;;;18.35;54.56;93843.53;5025171;28;20034;-86
2022/10/31 04:22:27;;;;;;;0.80;0.57;;;;;;;18.34;54.23;93839.31;5025635;28;20048;-86
2022/10/31 04:24:53;;;;;;;1.55;0.60;;;;;;;18.34;54.19;93847.53;5025854;28;20029;-86
2022/10/31 04:27:19;;;;;;;0.50;0.47;;;;;;;18.34;54.44;93839.31;5042117;28;20523;-86
2022/10/31 04:29:46;;;;;;;1.17;0.57;;;;;;;18.34;54.54;93839.31;5024879;28;20046;-86
2022/10/31 04:32:11;;;;;;;1.10;0.60;;;;;;;18.35;54.46;93846.28;5022548;28;20046;-86
2022/10/31 04:34:37;;;;;;;1.15;0.60;;;;;;;18.34;54.27;93845.53;5025407;28;20037;-86
2022/10/31 04:37:02;;;;;;;0.70;0.50;;;;;;;18.32;54.18;93839.81;4989732;28;20500;-86
2022/10/31 04:39:27;;;;;;;3.00;0.73;;;;;;;18.34;54.37;93845.53;4973217;28;20037;-86
2022/10/31 04:41:53;;;;;;;2.67;0.73;;;;;;;18.36;54.37;93847.78;5008146;28;20045;-87
2022/10/31 04:44:18;;;;;;;0.90;0.60;;;;;;;18.32;54.33;93848.03;5024985;28;20041;-86
2022/10/31 04:46:43;;;;;;;4.00;0.80;;;;;;;18.36;54.42;93842.31;5006873;28;20551;-85
2022/10/31 04:49:09;;;;;;;0.60;0.55;;;;;;;18.37;54.42;93843.78;5004349;28;20034;-86
2022/10/31 04:51:34;;;;;;;2.70;0.63;;;;;;;18.37;54.29;93849.28;4979666;28;20049;-86
2022/10/31 04:54:00;;;;;;;0.55;0.55;;;;;;;18.37;54.37;93846.53;4992068;28;20083;-86
2022/10/31 04:56:25;;;;;;;0.63;0.43;;;;;;;18.37;54.37;93843.78;4996313;28;20410;-86
2022/10/31 04:58:50;;;;;;;0.88;0.65;;;;;;;18.39;54.27;93842.06;5011747;28;20526;-85
2022/10/31 05:01:16;;;;;;;0.43;0.40;;;;;;;18.40;54.16;93831.84;5016446;28;20423;-87
2022/10/31 05:03:41;;;;;;;0.65;0.47;;;;;;;18.38;54.34;93846.03;4996350;28;20060;-87
2022/10/31 05:06:07;;;;;;;0.98;0.47;;;;;;;18.38;54.17;93848.03;5019244;28;20041;-87
2022/10/31 05:08:32;;;;;;;1.13;0.40;;;;;;;18.36;54.37;93843.03;5005766;28;20470;-85
2022/10/31 05:11:04;;;;;;;1.15;0.55;;;;;;;18.35;54.44;93843.53;4992797;28;20048;-86
2022/10/31 05:13:32;;;;;;;1.23;0.50;;;;;;;18.36;54.42;93847.78;5026933;28;20045;-87
2022/10/31 05:15:58;;;;;;;1.27;0.95;;;;;;;18.35;53.90;93849.03;5007078;28;20041;-87
2022/10/31 05:18:23;;;;;;;5.80;1.67;;;;;;;18.29;52.41;93838.06;5042663;28;20046;-89
2022/10/31 05:20:48;;;;;;;10.38;2.60;;;;;;;18.24;51.60;93843.53;5020952;28;20041;-88
2022/10/31 05:23:14;;;;;;;6.80;2.53;;;;;;;18.24;50.79;93851.75;4986161;28;20053;-88
2022/10/31 05:25:39;;;;;;;9.20;3.05;;;;;;;18.22;50.88;93849.50;5009319;28;20251;-88
2022/10/31 05:28:05;;;;;;;11.20;3.00;;;;;;;18.22;50.36;93844.03;5020265;28;20039;-86
2022/10/31 05:30:31;;;;;;;12.27;3.30;;;;;;;18.26;50.70;93841.81;5021342;28;20136;-89
2022/10/31 05:32:57;;;;;;;27.70;3.63;;;;;;;18.30;51.65;93841.56;5012047;28;20354;-85
2022/10/31 05:35:25;;;;;;;27.08;12.75;;;;;;;18.31;51.77;93840.31;5002223;28;20096;-87
2022/10/31 05:37:50;;;;;;;31.85;14.02;;;;;;;18.33;52.84;93852.25;5005650;28;20071;-88
2022/10/31 05:40:16;;;;;;;11.95;4.75;;;;;;;18.34;52.33;93851.00;5030284;28;20033;-88
2022/10/31 05:42:43;;;;;;;15.90;6.95;;;;;;;18.39;52.56;93841.31;5005563;28;20048;-87
2022/10/31 05:45:15;;;;;;;28.50;13.82;;;;;;;18.44;53.02;93843.25;5002243;28;20026;-88
2022/10/31 05:47:52;;;;;;;28.15;9.25;;;;;;;18.44;52.64;93848.75;5029553;28;20049;-88
2022/10/31 05:50:17;;;;;;;28.80;11.25;;;;;;;18.42;52.33;93843.75;5014862;28;20037;-88
2022/10/31 05:52:44;;;;;;;21.67;8.43;;;;;;;18.41;52.63;93841.53;5002034;28;20560;-88
2022/10/31 05:55:13;;;;;;;15.00;9.13;;;;;;;18.41;52.89;93847.75;5019284;28;20045;-88
2022/10/31 05:57:39;;;;;;;42.63;11.40;;;;;;;18.40;52.70;93851.72;4992587;28;20118;-88
2022/10/31 06:00:09;;;;;;;44.83;12.77;;;;;;;18.40;52.48;93851.72;5018923;28;20484;-87
2022/10/31 06:02:38;;;;;;;26.00;10.02;;;;;;;18.39;52.58;93857.72;5005322;28;20103;-86
2022/10/31 06:05:04;;;;;;;34.45;10.32;;;;;;;18.38;51.86;93856.22;5001156;28;20034;-86
2022/10/31 06:07:34;;;;;;;44.35;12.18;;;;;;;18.35;52.14;93855.25;5009340;28;20050;-87
2022/10/31 06:10:01;;;;;;;42.97;9.87;;;;;;;18.36;52.10;93851.25;5030584;28;20033;-87
2022/10/31 06:12:27;;;;;;;81.03;16.35;;;;;;;18.36;52.16;93856.72;5024877;28;20071;-92
2022/10/31 06:14:54;;;;;;;41.60;11.13;;;;;;;18.38;51.99;93865.19;5037875;28;20132;-88
2022/10/31 06:17:20;;;;;;;42.83;11.45;;;;;;;18.37;51.93;93854.75;5016779;28;20570;-89
2022/10/31 06:19:48;;;;;;;86.78;22.63;;;;;;;18.39;52.22;93868.69;5018601;28;20045;-90
2022/10/31 06:22:18;;;;;;;44.33;14.73;;;;;;;18.38;52.35;93869.91;5000943;28;20033;-86
2022/10/31 06:24:53;;;;;;;47.40;15.52;;;;;;;18.42;52.21;93868.41;5008129;28;20064;-87
2022/10/31 06:27:19;;;;;;;42.08;16.30;;;;;;;18.40;52.30;93879.09;5013806;28;20102;-88
2022/10/31 06:29:45;;;;;;;53.28;17.52;;;;;;;18.39;52.69;93874.91;5012506;28;20117;-88
2022/10/31 06:32:11;;;;;;;43.17;16.08;;;;;;;18.41;52.74;93882.59;5026082;28;20132;-87
2022/10/31 06:34:37;;;;;;;61.90;20.20;;;;;;;18.45;52.85;93886.56;4988587;28;20120;-88
2022/10/31 06:37:03;;;;;;;47.30;18.30;;;;;;;18.43;52.70;93882.84;5011018;28;20048;-89
2022/10/31 06:39:29;;;;;;;44.60;17.17;;;;;;;18.45;52.73;93883.09;5012282;28;20037;-87
2022/10/31 06:41:55;;;;;;;43.58;17.35;;;;;;;18.45;52.83;93891.28;4998064;28;20041;-88
2022/10/31 06:44:20;;;;;;;42.50;16.75;;;;;;;18.45;52.79;93888.56;5008802;28;20033;-88
2022/10/31 06:46:47;;;;;;;48.85;18.60;;;;;;;18.46;52.98;93892.78;5020117;28;20088;-86
2022/10/31 06:49:12;;;;;;;47.80;18.45;;;;;;;18.47;52.87;93895.03;4976750;28;20380;-89
2022/10/31 06:51:38;;;;;;;39.80;17.50;;;;;;;18.49;52.96;93894.53;5009996;28;20060;-87
2022/10/31 06:54:03;;;;;;;55.28;18.27;;;;;;;18.51;52.48;93892.03;5010453;28;20499;-90
2022/10/31 06:56:29;;;;;;;43.67;18.30;;;;;;;18.50;52.64;93885.81;5010410;28;20049;-87
2022/10/31 06:58:54;;;;;;;45.13;19.23;;;;;;;18.52;52.75;93893.53;5021375;28;20042;-86
2022/10/31 07:01:19;;;;;;;61.20;22.65;;;;;;;18.56;52.60;93901.50;5027033;28;20049;-89
2022/10/31 07:03:45;;;;;;;62.13;25.40;;;;;;;18.55;52.63;93902.75;4994504;28;20045;-88
2022/10/31 07:06:10;;;;;;;69.50;34.28;;;;;;;18.61;53.12;93906.25;5012110;28;20034;-91
2022/10/31 07:08:36;;;;;;;56.38;24.05;;;;;;;18.67;52.69;93904.25;5029195;28;20037;-91
2022/10/31 07:11:01;;;;;;;69.22;33.55;;;;;;;18.69;52.62;93907.97;5021573;28;20037;-87
2022/10/31 07:13:27;;;;;;;62.33;29.00;;;;;;;18.70;53.00;93900.50;5031988;28;20041;-88
2022/10/31 07:15:53;;;;;;;69.78;32.88;;;;;;;18.71;52.88;93899.25;5008519;28;20049;-88
2022/10/31 07:18:21;;;;;;;65.88;30.58;;;;;;;18.74;52.34;93904.50;5030331;28;20030;-90
2022/10/31 07:20:47;;;;;;;57.70;25.98;;;;;;;18.72;52.65;93901.50;5001307;28;21010;-87
2022/10/31 07:23:12;;;;;;;54.78;28.80;;;;;;;18.71;52.76;93902.00;5010538;28;20099;-86
2022/10/31 07:25:41;;;;;;;52.50;26.95;;;;;;;18.73;52.64;93904.97;5011055;28;20040;-88
2022/10/31 07:28:06;;;;;;;79.88;32.72;;;;;;;18.74;52.57;93901.75;4993813;28;20037;-88
2022/10/31 07:30:32;;;;;;;81.90;33.13;;;;;;;18.76;52.69;93901.25;5011387;28;20399;-88
2022/10/31 07:32:57;;;;;;;91.30;32.88;;;;;;;18.76;52.64;93904.00;5027989;28;20595;-87
2022/10/31 07:35:25;;;;;;;64.07;27.25;;;;;;;18.75;52.77;93894.28;5050588;28;20087;-88
2022/10/31 07:37:50;;;;;;;67.65;27.80;;;;;;;18.75;52.56;93905.22;5012239;28;20048;-87
2022/10/31 07:40:16;;;;;;;57.58;25.88;;;;;;;18.78;52.59;93904.22;5030067;28;20128;-88
2022/10/31 07:42:43;;;;;;;63.95;27.83;;;;;;;18.75;52.70;93902.50;5022193;28;20042;-88
2022/10/31 07:45:10;;;;;;;54.47;26.92;;;;;;;18.75;52.57;93897.00;5023171;28;20553;-90
2022/10/31 07:47:42;;;;;;;57.28;27.90;;;;;;;18.78;52.45;93896.75;5018358;28;20519;-88
2022/10/31 07:50:12;;;;;;;57.55;26.20;;;;;;;18.80;52.50;93888.06;5000778;28;20049;-90
2022/10/31 07:52:37;;;;;;;62.92;33.28;;;;;;;18.83;52.46;93889.78;5030248;28;20064;-90
2022/10/31 07:55:03;;;;;;;88.82;41.50;;;;;;;18.83;52.77;93893.28;5017529;28;20057;-88
2022/10/31 07:57:29;;;;;;;91.47;43.40;;;;;;;18.82;52.68;93894.53;5016183;28;20043;-88
2022/10/31 07:59:54;;;;;;;92.85;41.47;;;;;;;18.88;52.51;93893.75;5053029;28;20037;-87
2022/10/31 08:02:20;;;;;;;103.55;41.13;;;;;;;18.88;52.31;93896.47;5011046;28;20038;-84
2022/10/31 08:04:45;;;;;;;99.00;39.33;;;;;;;18.88;52.56;93891.75;5028170;28;20467;-87
2022/10/31 08:07:11;;;;;;;93.60;39.17;;;;;;;18.87;52.54;93893.00;5001750;28;20042;-87
2022/10/31 08:09:36;;;;;;;81.68;37.15;;;;;;;18.83;52.55;93889.78;5010631;28;20029;-87
2022/10/31 08:12:02;;;;;;;79.40;37.65;;;;;;;18.88;52.28;93880.03;5002446;28;20707;-87
2022/10/31 08:14:27;;;;;;;77.45;34.90;;;;;;;18.90;52.42;93894.72;5017477;28;20088;-86
2022/10/31 08:16:53;;;;;;;85.05;34.15;;;;;;;18.88;52.49;93889.00;4981967;28;20033;-85
2022/10/31 08:19:18;;;;;;;61.63;31.10;;;;;;;18.88;52.71;93874.56;4997360;28;20128;-86
2022/10/31 08:21:44;;;;;;;64.22;30.92;;;;;;;18.86;52.52;93883.28;4992215;28;20033;-86
2022/10/31 08:24:10;;;;;;;76.00;32.88;;;;;;;18.84;52.59;93883.78;5012353;28;20479;-87
2022/10/31 08:26:36;;;;;;;70.93;31.77;;;;;;;18.85;52.81;93884.53;4988413;28;20049;-88
2022/10/31 08:29:01;;;;;;;69.60;28.42;;;;;;;18.86;52.01;93880.53;4994441;28;20127;-86
2022/10/31 08:31:27;;;;;;;67.30;29.27;;;;;;;18.86;52.16;93883.28;4997061;28;20084;-86
2022/10/31 08:33:53;;;;;;;69.65;28.60;;;;;;;18.84;52.34;93878.31;4981197;28;20174;-86
2022/10/31 08:36:19;;;;;;;58.75;31.35;;;;;;;18.85;52.41;93879.03;4985097;28;20439;-87
2022/10/31 08:38:46;;;;;;;68.22;30.45;;;;;;;18.85;52.40;93879.03;4992368;28;20073;-88
2022/10/31 08:41:11;;;;;;;67.18;32.47;;;;;;;18.86;52.66;93872.31;5015469;28;20286;-89
2022/10/31 08:43:37;;;;;;;72.35;37.58;;;;;;;18.89;52.54;93881.53;5002462;28;20048;-88
2022/10/31 08:46:03;;;;;;;89.03;41.90;;;;;;;18.91;52.44;93877.03;4992219;28;20041;-87
2022/10/31 08:48:29;;;;;;;98.30;45.97;;;;;;;18.90;52.82;93878.28;4985932;28;20049;-88
2022/10/31 08:50:56;;;;;;;97.07;45.70;;;;;;;18.91;52.51;93873.56;4987451;28;20049;-89
2022/10/31 08:53:22;;;;;;;160.82;79.63;;;;;;;18.90;52.58;93872.06;5010040;28;20049;-88
2022/10/31 08:55:48;;;;;;;194.70;87.35;;;;;;;18.89;52.81;93874.06;4982358;28;20038;-86
2022/10/31 08:58:16;;;;;;;167.00;78.43;;;;;;;18.93;52.87;93869.06;5001878;28;20045;-87
2022/10/31 09:00:41;;;;;;;143.98;72.80;;;;;;;18.94;52.74;93867.81;4992952;28;20037;-86
2022/10/31 09:03:10;;;;;;;173.98;80.93;;;;;;;18.92;53.05;93869.56;5009115;28;20064;-87
2022/10/31 09:05:35;;;;;;;144.13;72.68;;;;;;;18.97;52.39;93871.56;4993454;28;20041;-88
2022/10/31 09:08:01;;;;;;;158.50;77.22;;;;;;;18.95;52.53;93866.59;5001223;28;20374;-86
2022/10/31 09:10:27;;;;;;;147.60;72.03;;;;;;;18.99;52.34;93861.59;4977178;28;20033;-88
2022/10/31 09:12:57;;;;;;;149.45;70.07;;;;;;;19.02;52.58;93859.84;4993377;28;20042;-85
2022/10/31 09:15:22;;;;;;;162.27;81.43;;;;;;;19.01;52.73;93861.09;5020476;28;20045;-88
2022/10/31 09:17:48;;;;;;;217.23;108.22;;;;;;;19.01;52.92;93856.34;4991986;28;20033;-87
2022/10/31 09:20:13;;;;;;;332.90;117.03;;;;;;;19.03;52.75;93858.59;5019833;28;20562;-86
2022/10/31 09:22:39;;;;;;;308.50;117.32;;;;;;;19.05;52.73;93856.09;4992994;28;20046;-88
2022/10/31 09:25:04;;;;;;;262.30;105.35;;;;;;;19.05;52.89;93861.56;5008694;28;20088;-86
2022/10/31 09:27:30;;;;;;;356.67;122.22;;;;;;;19.04;52.77;93849.88;4964895;28;20055;-87
2022/10/31 09:29:55;;;;;;;304.27;131.65;;;;;;;19.04;52.90;93860.09;4994360;28;20062;-86
2022/10/31 09:32:21;;;;;;;283.98;126.43;;;;;;;19.05;52.90;93854.06;5011833;28;20049;-88
2022/10/31 09:34:46;;;;;;;234.35;112.32;;;;;;;19.03;53.00;93859.34;4985689;28;20504;-91
2022/10/31 09:37:12;;;;;;;218.30;115.15;;;;;;;19.06;52.56;93854.81;4962664;28;20484;-90
2022/10/31 09:39:37;;;;;;;275.88;151.20;;;;;;;19.05;52.53;93858.84;4979897;28;20054;-89
2022/10/31 09:42:26;;;;;;;336.67;196.52;;;;;;;19.03;52.59;93861.34;4966936;28;20105;-88
2022/10/31 09:45:04;;;;;;;333.60;192.48;;;;;;;19.04;52.71;93847.13;4981392;28;20046;-88
2022/10/31 09:47:52;;;;;;;372.17;215.07;;;;;;;19.02;52.73;93844.16;4983727;28;20042;-88
2022/10/31 09:50:22;;;;;;;389.75;224.10;;;;;;;19.02;52.76;93854.34;5013302;28;20100;-88
2022/10/31 09:52:57;;;;;;;383.77;217.13;;;;;;;19.03;52.93;93847.63;4979826;28;20064;-87
2022/10/31 09:55:36;;;;;;;374.52;217.68;;;;;;;19.04;52.58;93857.34;4974093;28;20154;-87
2022/10/31 09:58:01;;;;;;;340.45;203.52;;;;;;;19.04;52.46;93847.13;4979783;28;20038;-87
2022/10/31 10:00:27;;;;;;;348.05;209.52;;;;;;;19.03;52.79;93845.63;4988304;28;20053;-87
2022/10/31 10:03:21;;;;;;;322.23;197.93;;;;;;;19.01;52.91;93850.13;4993954;28;20042;-86
2022/10/31 10:06:04;;;;;;;331.88;187.00;;;;;;;19.05;52.58;93845.13;5001266;28;20278;-85
2022/10/31 10:08:31;;;;;;;324.83;184.45;;;;;;;19.04;52.33;93841.66;5005658;28;20076;-87
2022/10/31 10:11:27;;;;;;;357.90;191.13;;;;;;;19.05;52.76;93847.88;4988667;28;20054;-87
2022/10/31 10:14:30;;;;;;;352.65;176.57;;;;;;;19.04;52.39;93836.16;5005232;28;20057;-86
2022/10/31 10:17:13;;;;;;;278.33;149.23;;;;;;;19.06;52.57;93843.84;5006596;28;20059;-85
2022/10/31 10:19:41;;;;;;;265.35;147.63;;;;;;;19.10;52.35;93836.13;5007496;28;20045;-86
2022/10/31 10:22:20;;;;;;;266.85;143.10;;;;;;;19.09;52.41;93834.63;5002022;28;20046;-87
2022/10/31 10:25:16;;;;;;;275.10;145.10;;;;;;;19.10;52.30;93839.63;4998907;28;20439;-88
2022/10/31 10:28:00;;;;;;;235.95;131.05;;;;;;;19.13;52.11;93838.59;4996597;28;20369;-87
2022/10/31 10:30:35;;;;;;;221.25;124.88;;;;;;;19.16;52.96;93831.38;5007513;28;20057;-87
2022/10/31 10:33:05;;;;;;;202.95;113.70;;;;;;;19.19;52.16;93830.38;5008361;28;20464;-88
2022/10/31 10:35:34;;;;;;;184.13;110.10;;;;;;;19.22;51.92;93826.63;4980722;28;20611;-88
2022/10/31 10:38:24;;;;;;;187.97;107.73;;;;;;;19.18;51.96;93832.34;4985982;28;20322;-88
2022/10/31 10:40:51;;;;;;;172.45;102.68;;;;;;;19.23;51.92;93824.63;5014036;28;20080;-86
2022/10/31 10:43:22;;;;;;;164.82;94.57;;;;;;;19.19;51.77;93824.88;4990441;28;20076;-87
2022/10/31 10:49:09;;;;;;;174.65;89.30;;;;;;;19.20;51.48;93815.41;4992223;28;20053;-86
2022/10/31 10:51:44;;;;;;;171.48;84.60;;;;;;;19.18;51.52;93820.66;4992340;28;20046;-86
2022/10/31 10:54:21;;;;;;;155.82;79.88;;;;;;;19.19;51.33;93822.13;5008705;28;20041;-88
2022/10/31 10:57:07;;;;;;;128.75;70.35;;;;;;;19.19;50.92;93816.66;5009688;28;20042;-86
2022/10/31 10:59:33;;;;;;;116.00;62.53;;;;;;;19.17;50.60;93814.44;5008463;28;20353;-88
2022/10/31 11:01:59;;;;;;;130.35;57.45;;;;;;;19.16;51.14;93809.44;4992094;28;20041;-89
2022/10/31 11:04:34;;;;;;;117.40;47.95;;;;;;;19.16;51.39;93809.44;4994312;28;20518;-87
2022/10/31 11:07:03;;;;;;;105.50;49.03;;;;;;;19.17;50.91;93805.47;4992949;28;20522;-88
2022/10/31 11:09:28;;;;;;;115.30;53.42;;;;;;;19.15;50.93;93803.22;4975043;28;20046;-88
2022/10/31 11:11:54;;;;;;;100.85;52.05;;;;;;;19.16;51.24;93801.97;4990588;28;20084;-89
2022/10/31 11:14:20;;;;;;;93.20;51.38;;;;;;;19.18;51.40;93796.72;4991224;28;20038;-88
2022/10/31 11:16:49;;;;;;;78.75;45.08;;;;;;;19.16;51.27;93793.75;4996876;28;20049;-89
2022/10/31 11:19:22;;;;;;;76.45;46.17;;;;;;;19.16;51.37;93791.00;4985466;28;20046;-91
2022/10/31 11:21:48;;;;;;;84.40;46.28;;;;;;;19.18;51.20;93783.03;4968515;28;20045;-87
2022/10/31 11:24:15;;;;;;;82.85;44.55;;;;;;;19.17;51.32;93778.06;4984816;28;20519;-88
2022/10/31 11:26:42;;;;;;;66.70;41.78;;;;;;;19.18;50.91;93783.03;4991243;28;20037;-87
2022/10/31 11:29:16;;;;;;;129.82;88.88;;;;;;;19.15;51.04;93777.81;5003241;28;20038;-87
2022/10/31 11:31:42;;;;;;;74.63;44.20;;;;;;;19.16;50.85;93777.31;4971911;28;20314;-88